sensor_id;sensor_type;location;lat;lon;timestamp;temperature;humidity
27439;DHT22;14887;51.252;7.470;2023-04-03T00:02:10;-0.80;1.00
27439;DHT22;14887;51.252;7.470;2023-04-03T00:04:36;-0.80;1.00
27439;DHT22;14887;51.252;7.470;2023-04-03T00:07:01;-0.80;1.00
27439;DHT22;14887;51.252;7.470;2023-04-03T00:09:27;-0.80;1.00
27439;DHT22;14887;51.252;7.470;2023-04-03T00:11:52;-0.70;1.00
27439;DHT22;14887;51.252;7.470;2023-04-03T00:14:19;-0.70;1.00
27439;DHT22;14887;51.252;7.470;2023-04-03T00:16:44;-0.70;1.00
27439;DHT22;14887;51.252;7.470;2023-04-03T00:19:10;-0.70;1.00
27439;DHT22;14887;51.252;7.470;2023-04-03T00:21:37;-0.70;1.00
27439;DHT22;14887;51.252;7.470;2023-04-03T00:24:03;-0.80;1.00
27439;DHT22;14887;51.252;7.470;2023-04-03T00:26:29;-0.80;1.00
27439;DHT22;14887;51.252;7.470;2023-04-03T00:28:54;-0.80;1.00
27439;DHT22;14887;51.252;7.470;2023-04-03T00:31:20;-0.90;1.00
27439;DHT22;14887;51.252;7.470;2023-04-03T00:33:45;-0.80;1.00
27439;DHT22;14887;51.252;7.470;2023-04-03T00:36:12;-0.80;1.00
27439;DHT22;14887;51.252;7.470;2023-04-03T00:38:38;-0.80;1.00
27439;DHT22;14887;51.252;7.470;2023-04-03T00:41:04;-0.80;1.00
27439;DHT22;14887;51.252;7.470;2023-04-03T00:43:30;-0.70;1.00
27439;DHT22;14887;51.252;7.470;2023-04-03T00:45:57;-0.70;1.00
27439;DHT22;14887;51.252;7.470;2023-04-03T00:48:30;-0.80;1.00
27439;DHT22;14887;51.252;7.470;2023-04-03T00:50:57;-0.80;1.00
27439;DHT22;14887;51.252;7.470;2023-04-03T00:53:27;-0.90;1.00
27439;DHT22;14887;51.252;7.470;2023-04-03T00:55:56;-0.80;1.00
27439;DHT22;14887;51.252;7.470;2023-04-03T00:58:28;-0.70;1.00
27439;DHT22;14887;51.252;7.470;2023-04-03T01:00:58;-0.80;1.00
27439;DHT22;14887;51.252;7.470;2023-04-03T01:03:24;-0.80;1.00
27439;DHT22;14887;51.252;7.470;2023-04-03T01:05:49;-0.90;1.00
27439;DHT22;14887;51.252;7.470;2023-04-03T01:08:15;-0.80;1.00
27439;DHT22;14887;51.252;7.470;2023-04-03T01:10:42;-0.80;1.00
27439;DHT22;14887;51.252;7.470;2023-04-03T01:13:25;-0.80;1.00
27439;DHT22;14887;51.252;7.470;2023-04-03T01:15:51;-0.70;1.00
27439;DHT22;14887;51.252;7.470;2023-04-03T01:18:17;-0.70;1.00
27439;DHT22;14887;51.252;7.470;2023-04-03T01:26:02;-0.60;1.00
27439;DHT22;14887;51.252;7.470;2023-04-03T01:28:32;-0.60;1.00
27439;DHT22;14887;51.252;7.470;2023-04-03T01:33:36;-0.60;1.00
27439;DHT22;14887;51.252;7.470;2023-04-03T01:36:03;-0.50;1.00
27439;DHT22;14887;51.252;7.470;2023-04-03T01:38:29;-0.50;1.00
27439;DHT22;14887;51.252;7.470;2023-04-03T01:40:54;-0.60;1.00
27439;DHT22;14887;51.252;7.470;2023-04-03T01:43:20;-0.60;1.00
27439;DHT22;14887;51.252;7.470;2023-04-03T01:45:45;-0.70;1.00
27439;DHT22;14887;51.252;7.470;2023-04-03T01:48:12;-0.70;1.00
27439;DHT22;14887;51.252;7.470;2023-04-03T01:50:38;-0.70;1.00
27439;DHT22;14887;51.252;7.470;2023-04-03T01:53:04;-0.70;1.00
27439;DHT22;14887;51.252;7.470;2023-04-03T01:55:29;-0.70;1.00
27439;DHT22;14887;51.252;7.470;2023-04-03T01:57:55;-0.70;1.00
27439;DHT22;14887;51.252;7.470;2023-04-03T02:00:20;-0.60;1.00
27439;DHT22;14887;51.252;7.470;2023-04-03T02:02:46;-0.70;1.00
27439;DHT22;14887;51.252;7.470;2023-04-03T02:05:11;-0.70;1.00
27439;DHT22;14887;51.252;7.470;2023-04-03T02:07:37;-0.70;1.00
27439;DHT22;14887;51.252;7.470;2023-04-03T02:10:03;-0.80;1.00
27439;DHT22;14887;51.252;7.470;2023-04-03T02:12:28;-0.80;1.00
27439;DHT22;14887;51.252;7.470;2023-04-03T02:14:54;-0.80;1.00
27439;DHT22;14887;51.252;7.470;2023-04-03T02:17:19;-0.80;1.00
27439;DHT22;14887;51.252;7.470;2023-04-03T02:19:45;-0.80;1.00
27439;DHT22;14887;51.252;7.470;2023-04-03T02:22:10;-0.80;1.00
27439;DHT22;14887;51.252;7.470;2023-04-03T02:24:36;-0.80;1.00
27439;DHT22;14887;51.252;7.470;2023-04-03T02:27:04;-0.90;1.00
27439;DHT22;14887;51.252;7.470;2023-04-03T02:29:30;-0.90;1.00
27439;DHT22;14887;51.252;7.470;2023-04-03T02:31:55;-1.10;1.00
27439;DHT22;14887;51.252;7.470;2023-04-03T02:34:21;-1.10;1.00
27439;DHT22;14887;51.252;7.470;2023-04-03T02:36:47;-1.10;1.00
27439;DHT22;14887;51.252;7.470;2023-04-03T02:39:12;-1.20;1.00
27439;DHT22;14887;51.252;7.470;2023-04-03T02:41:38;-1.20;1.00
27439;DHT22;14887;51.252;7.470;2023-04-03T02:44:05;-1.20;1.00
27439;DHT22;14887;51.252;7.470;2023-04-03T02:46:31;-1.10;1.00
27439;DHT22;14887;51.252;7.470;2023-04-03T02:48:57;-1.10;1.00
27439;DHT22;14887;51.252;7.470;2023-04-03T02:51:23;-1.10;1.00
27439;DHT22;14887;51.252;7.470;2023-04-03T02:53:49;-1.20;1.00
27439;DHT22;14887;51.252;7.470;2023-04-03T02:56:15;-1.20;1.00
27439;DHT22;14887;51.252;7.470;2023-04-03T02:58:41;-1.30;1.00
27439;DHT22;14887;51.252;7.470;2023-04-03T03:01:06;-1.30;1.00
27439;DHT22;14887;51.252;7.470;2023-04-03T03:03:32;-1.30;1.00
27439;DHT22;14887;51.252;7.470;2023-04-03T03:06:02;-1.30;1.00
27439;DHT22;14887;51.252;7.470;2023-04-03T03:08:28;-1.30;1.00
27439;DHT22;14887;51.252;7.470;2023-04-03T03:10:53;-1.30;1.00
27439;DHT22;14887;51.252;7.470;2023-04-03T03:13:19;-1.30;1.00
27439;DHT22;14887;51.252;7.470;2023-04-03T03:15:44;-1.40;1.00
27439;DHT22;14887;51.252;7.470;2023-04-03T03:18:10;-1.40;1.00
27439;DHT22;14887;51.252;7.470;2023-04-03T03:20:35;-1.50;1.00
27439;DHT22;14887;51.252;7.470;2023-04-03T03:23:01;-1.50;1.00
27439;DHT22;14887;51.252;7.470;2023-04-03T03:25:26;-1.40;1.00
27439;DHT22;14887;51.252;7.470;2023-04-03T03:27:52;-1.30;1.00
27439;DHT22;14887;51.252;7.470;2023-04-03T03:30:17;-1.40;1.00
27439;DHT22;14887;51.252;7.470;2023-04-03T03:32:43;-1.40;1.00
27439;DHT22;14887;51.252;7.470;2023-04-03T03:35:09;-1.50;1.00
27439;DHT22;14887;51.252;7.470;2023-04-03T03:37:34;-1.50;1.00
27439;DHT22;14887;51.252;7.470;2023-04-03T03:40:00;-1.50;1.00
27439;DHT22;14887;51.252;7.470;2023-04-03T03:42:25;-1.50;1.00
27439;DHT22;14887;51.252;7.470;2023-04-03T03:44:51;-1.50;1.00
27439;DHT22;14887;51.252;7.470;2023-04-03T03:47:17;-1.50;1.00
27439;DHT22;14887;51.252;7.470;2023-04-03T03:49:43;-1.50;1.00
27439;DHT22;14887;51.252;7.470;2023-04-03T03:52:08;-1.60;1.00
27439;DHT22;14887;51.252;7.470;2023-04-03T03:54:36;-1.70;1.00
27439;DHT22;14887;51.252;7.470;2023-04-03T03:57:02;-1.70;1.00
27439;DHT22;14887;51.252;7.470;2023-04-03T03:59:27;-1.70;1.00
27439;DHT22;14887;51.252;7.470;2023-04-03T04:01:53;-1.70;1.00
27439;DHT22;14887;51.252;7.470;2023-04-03T04:04:18;-1.70;1.00
27439;DHT22;14887;51.252;7.470;2023-04-03T04:06:44;-1.80;1.00
27439;DHT22;14887;51.252;7.470;2023-04-03T04:09:11;-1.90;1.00
27439;DHT22;14887;51.252;7.470;2023-04-03T04:11:37;-1.90;1.00
27439;DHT22;14887;51.252;7.470;2023-04-03T04:14:05;-1.90;1.00
27439;DHT22;14887;51.252;7.470;2023-04-03T04:16:30;-1.90;1.00
27439;DHT22;14887;51.252;7.470;2023-04-03T04:18:56;-1.90;1.00
27439;DHT22;14887;51.252;7.470;2023-04-03T04:21:21;-1.90;1.00
27439;DHT22;14887;51.252;7.470;2023-04-03T04:23:47;-1.90;1.00
27439;DHT22;14887;51.252;7.470;2023-04-03T04:26:12;-1.90;1.00
27439;DHT22;14887;51.252;7.470;2023-04-03T04:28:38;-2.00;1.00
27439;DHT22;14887;51.252;7.470;2023-04-03T04:31:03;-2.00;1.00
27439;DHT22;14887;51.252;7.470;2023-04-03T04:33:29;-2.10;1.00
27439;DHT22;14887;51.252;7.470;2023-04-03T04:35:55;-2.10;1.00
27439;DHT22;14887;51.252;7.470;2023-04-03T04:38:21;-2.10;1.00
27439;DHT22;14887;51.252;7.470;2023-04-03T04:40:47;-2.10;1.00
27439;DHT22;14887;51.252;7.470;2023-04-03T04:43:14;-2.20;1.00
27439;DHT22;14887;51.252;7.470;2023-04-03T04:45:40;-2.20;1.00
27439;DHT22;14887;51.252;7.470;2023-04-03T04:48:06;-2.30;1.00
27439;DHT22;14887;51.252;7.470;2023-04-03T04:50:31;-2.30;1.00
27439;DHT22;14887;51.252;7.470;2023-04-03T04:52:57;-2.30;1.00
27439;DHT22;14887;51.252;7.470;2023-04-03T04:55:22;-2.30;1.00
27439;DHT22;14887;51.252;7.470;2023-04-03T04:57:48;-2.40;1.00
27439;DHT22;14887;51.252;7.470;2023-04-03T05:00:14;-2.40;1.00
27439;DHT22;14887;51.252;7.470;2023-04-03T05:02:40;-2.40;1.00
27439;DHT22;14887;51.252;7.470;2023-04-03T05:05:06;-2.40;1.00
27439;DHT22;14887;51.252;7.470;2023-04-03T05:07:32;-2.50;1.00
27439;DHT22;14887;51.252;7.470;2023-04-03T05:09:58;-2.50;1.00
27439;DHT22;14887;51.252;7.470;2023-04-03T05:12:24;-2.40;1.00
27439;DHT22;14887;51.252;7.470;2023-04-03T05:14:49;-2.30;1.00
27439;DHT22;14887;51.252;7.470;2023-04-03T05:17:15;-2.30;4.30
27439;DHT22;14887;51.252;7.470;2023-04-03T05:19:41;-2.30;8.00
27439;DHT22;14887;51.252;7.470;2023-04-03T05:22:06;-2.20;12.20
27439;DHT22;14887;51.252;7.470;2023-04-03T05:24:32;-2.20;14.80
27439;DHT22;14887;51.252;7.470;2023-04-03T05:26:57;-2.10;18.70
27439;DHT22;14887;51.252;7.470;2023-04-03T05:29:23;-1.70;24.90
27439;DHT22;14887;51.252;7.470;2023-04-03T05:31:49;-1.50;30.40
27439;DHT22;14887;51.252;7.470;2023-04-03T05:34:15;-1.10;35.70
27439;DHT22;14887;51.252;7.470;2023-04-03T05:36:41;-0.80;34.80
27439;DHT22;14887;51.252;7.470;2023-04-03T05:39:07;-0.80;19.50
27439;DHT22;14887;51.252;7.470;2023-04-03T05:41:33;-0.80;1.50
27439;DHT22;14887;51.252;7.470;2023-04-03T05:43:58;-0.80;1.00
27439;DHT22;14887;51.252;7.470;2023-04-03T05:46:24;-0.80;1.00
27439;DHT22;14887;51.252;7.470;2023-04-03T05:48:49;-0.80;1.00
27439;DHT22;14887;51.252;7.470;2023-04-03T05:51:28;-0.60;1.00
27439;DHT22;14887;51.252;7.470;2023-04-03T05:54:03;-0.20;1.00
27439;DHT22;14887;51.252;7.470;2023-04-03T05:56:31;0.40;3.20
27439;DHT22;14887;51.252;7.470;2023-04-03T05:58:56;1.00;1.00
27439;DHT22;14887;51.252;7.470;2023-04-03T06:01:22;1.80;1.00
27439;DHT22;14887;51.252;7.470;2023-04-03T06:03:48;2.40;1.00
27439;DHT22;14887;51.252;7.470;2023-04-03T06:06:14;3.10;99.90
27439;DHT22;14887;51.252;7.470;2023-04-03T06:08:40;2.90;64.50
27439;DHT22;14887;51.252;7.470;2023-04-03T06:11:06;2.50;99.90
27439;DHT22;14887;51.252;7.470;2023-04-03T06:13:33;2.80;99.90
27439;DHT22;14887;51.252;7.470;2023-04-03T06:16:00;3.20;99.90
27439;DHT22;14887;51.252;7.470;2023-04-03T06:18:26;3.80;99.90
27439;DHT22;14887;51.252;7.470;2023-04-03T06:20:52;4.10;1.00
27439;DHT22;14887;51.252;7.470;2023-04-03T06:23:18;4.20;1.00
27439;DHT22;14887;51.252;7.470;2023-04-03T06:25:43;4.40;1.00
27439;DHT22;14887;51.252;7.470;2023-04-03T06:28:09;4.60;99.90
27439;DHT22;14887;51.252;7.470;2023-04-03T06:30:36;4.90;1.00
27439;DHT22;14887;51.252;7.470;2023-04-03T06:33:02;5.10;1.00
27439;DHT22;14887;51.252;7.470;2023-04-03T06:35:27;5.30;1.00
27439;DHT22;14887;51.252;7.470;2023-04-03T06:37:55;5.60;99.90
27439;DHT22;14887;51.252;7.470;2023-04-03T06:40:24;6.00;47.80
27439;DHT22;14887;51.252;7.470;2023-04-03T06:42:50;6.00;1.00
27439;DHT22;14887;51.252;7.470;2023-04-03T06:45:16;6.10;1.00
27439;DHT22;14887;51.252;7.470;2023-04-03T06:47:42;5.50;1.00
27439;DHT22;14887;51.252;7.470;2023-04-03T06:50:10;4.20;1.00
27439;DHT22;14887;51.252;7.470;2023-04-03T06:52:36;3.10;99.90
27439;DHT22;14887;51.252;7.470;2023-04-03T06:55:02;2.20;65.20
27439;DHT22;14887;51.252;7.470;2023-04-03T06:57:28;1.40;99.90
27439;DHT22;14887;51.252;7.470;2023-04-03T06:59:54;0.90;1.00
27439;DHT22;14887;51.252;7.470;2023-04-03T07:02:19;1.50;1.00
27439;DHT22;14887;51.252;7.470;2023-04-03T07:04:46;2.60;99.90
27439;DHT22;14887;51.252;7.470;2023-04-03T07:07:11;3.90;99.90
27439;DHT22;14887;51.252;7.470;2023-04-03T07:09:38;5.10;99.90
27439;DHT22;14887;51.252;7.470;2023-04-03T07:12:03;5.80;99.90
27439;DHT22;14887;51.252;7.470;2023-04-03T07:14:29;6.20;1.00
27439;DHT22;14887;51.252;7.470;2023-04-03T07:16:55;6.80;1.00
27439;DHT22;14887;51.252;7.470;2023-04-03T07:19:20;7.30;99.90
27439;DHT22;14887;51.252;7.470;2023-04-03T07:21:46;7.70;99.90
27439;DHT22;14887;51.252;7.470;2023-04-03T07:24:12;7.80;99.90
27439;DHT22;14887;51.252;7.470;2023-04-03T07:26:38;7.90;99.90
27439;DHT22;14887;51.252;7.470;2023-04-03T07:29:03;8.60;99.90
27439;DHT22;14887;51.252;7.470;2023-04-03T07:31:29;9.10;99.90
27439;DHT22;14887;51.252;7.470;2023-04-03T07:33:54;9.20;1.00
27439;DHT22;14887;51.252;7.470;2023-04-03T07:36:21;9.30;1.00
27439;DHT22;14887;51.252;7.470;2023-04-03T07:38:47;9.40;1.00
27439;DHT22;14887;51.252;7.470;2023-04-03T07:41:18;9.70;1.00
27439;DHT22;14887;51.252;7.470;2023-04-03T07:43:45;9.90;1.00
27439;DHT22;14887;51.252;7.470;2023-04-03T07:46:12;10.10;1.00
27439;DHT22;14887;51.252;7.470;2023-04-03T07:48:38;10.80;1.00
27439;DHT22;14887;51.252;7.470;2023-04-03T07:51:04;11.10;1.00
27439;DHT22;14887;51.252;7.470;2023-04-03T07:53:30;11.40;1.00
27439;DHT22;14887;51.252;7.470;2023-04-03T07:55:57;11.30;1.00
27439;DHT22;14887;51.252;7.470;2023-04-03T07:58:23;11.30;1.00
27439;DHT22;14887;51.252;7.470;2023-04-03T08:00:49;10.90;1.00
27439;DHT22;14887;51.252;7.470;2023-04-03T08:03:15;11.40;1.00
27439;DHT22;14887;51.252;7.470;2023-04-03T08:05:46;11.40;1.00
27439;DHT22;14887;51.252;7.470;2023-04-03T08:08:14;11.80;1.00
27439;DHT22;14887;51.252;7.470;2023-04-03T08:10:40;11.90;1.00
27439;DHT22;14887;51.252;7.470;2023-04-03T08:13:06;11.40;1.00
27439;DHT22;14887;51.252;7.470;2023-04-03T08:15:32;10.80;1.00
27439;DHT22;14887;51.252;7.470;2023-04-03T08:17:59;10.50;1.00
27439;DHT22;14887;51.252;7.470;2023-04-03T08:20:26;10.60;1.00
27439;DHT22;14887;51.252;7.470;2023-04-03T08:22:52;10.80;1.00
27439;DHT22;14887;51.252;7.470;2023-04-03T08:25:18;11.10;1.00
27439;DHT22;14887;51.252;7.470;2023-04-03T08:27:44;11.20;1.00
27439;DHT22;14887;51.252;7.470;2023-04-03T08:30:10;10.70;1.00
27439;DHT22;14887;51.252;7.470;2023-04-03T08:32:36;10.50;1.00
27439;DHT22;14887;51.252;7.470;2023-04-03T08:35:03;10.10;1.00
27439;DHT22;14887;51.252;7.470;2023-04-03T08:37:28;9.90;1.00
27439;DHT22;14887;51.252;7.470;2023-04-03T08:39:54;9.60;1.00
27439;DHT22;14887;51.252;7.470;2023-04-03T08:48:05;9.70;99.90
27439;DHT22;14887;51.252;7.470;2023-04-03T08:50:48;9.50;99.90
27439;DHT22;14887;51.252;7.470;2023-04-03T08:53:19;9.30;99.90
27439;DHT22;14887;51.252;7.470;2023-04-03T08:55:50;9.40;99.90
27439;DHT22;14887;51.252;7.470;2023-04-03T08:58:21;9.50;1.00
27439;DHT22;14887;51.252;7.470;2023-04-03T09:00:51;9.80;99.90
27439;DHT22;14887;51.252;7.470;2023-04-03T09:03:19;9.70;99.90
27439;DHT22;14887;51.252;7.470;2023-04-03T09:08:53;8.90;99.90
27439;DHT22;14887;51.252;7.470;2023-04-03T09:11:25;8.80;99.90
27439;DHT22;14887;51.252;7.470;2023-04-03T09:14:02;9.20;99.90
27439;DHT22;14887;51.252;7.470;2023-04-03T09:16:55;9.30;99.90
27439;DHT22;14887;51.252;7.470;2023-04-03T09:19:35;9.20;99.90
27439;DHT22;14887;51.252;7.470;2023-04-03T09:22:21;9.20;99.90
27439;DHT22;14887;51.252;7.470;2023-04-03T09:24:55;8.90;99.90
27439;DHT22;14887;51.252;7.470;2023-04-03T09:27:22;9.30;99.90
27439;DHT22;14887;51.252;7.470;2023-04-03T09:29:49;9.80;99.90
27439;DHT22;14887;51.252;7.470;2023-04-03T09:32:34;9.80;99.90
27439;DHT22;14887;51.252;7.470;2023-04-03T09:35:16;10.00;99.90
27439;DHT22;14887;51.252;7.470;2023-04-03T09:37:45;10.20;99.90
27439;DHT22;14887;51.252;7.470;2023-04-03T09:42:53;10.50;99.90
27439;DHT22;14887;51.252;7.470;2023-04-03T09:45:34;10.10;99.90
27439;DHT22;14887;51.252;7.470;2023-04-03T09:56:04;9.90;99.90
27439;DHT22;14887;51.252;7.470;2023-04-03T09:58:40;10.20;99.90
27439;DHT22;14887;51.252;7.470;2023-04-03T10:01:22;10.20;99.90
27439;DHT22;14887;51.252;7.470;2023-04-03T10:06:39;9.80;99.90
27439;DHT22;14887;51.252;7.470;2023-04-03T10:09:17;9.70;99.90
27439;DHT22;14887;51.252;7.470;2023-04-03T10:12:07;9.70;99.90
27439;DHT22;14887;51.252;7.470;2023-04-03T10:14:40;9.60;99.90
27439;DHT22;14887;51.252;7.470;2023-04-03T10:25:40;10.10;99.90
27439;DHT22;14887;51.252;7.470;2023-04-03T10:31:18;10.50;99.90
27439;DHT22;14887;51.252;7.470;2023-04-03T10:34:20;10.10;99.90
27439;DHT22;14887;51.252;7.470;2023-04-03T10:37:06;10.30;99.90
27439;DHT22;14887;51.252;7.470;2023-04-03T10:39:57;10.40;99.90
27439;DHT22;14887;51.252;7.470;2023-04-03T10:55:36;10.50;99.90
27439;DHT22;14887;51.252;7.470;2023-04-03T10:58:05;11.00;99.90
27439;DHT22;14887;51.252;7.470;2023-04-03T11:00:41;11.10;99.90
27439;DHT22;14887;51.252;7.470;2023-04-03T11:03:24;11.10;99.90
27439;DHT22;14887;51.252;7.470;2023-04-03T11:05:53;11.30;99.90
27439;DHT22;14887;51.252;7.470;2023-04-03T11:11:06;11.00;99.90
27439;DHT22;14887;51.252;7.470;2023-04-03T11:13:43;10.90;99.90
27439;DHT22;14887;51.252;7.470;2023-04-03T11:16:18;10.70;99.90
27439;DHT22;14887;51.252;7.470;2023-04-03T11:18:52;10.40;99.90
27439;DHT22;14887;51.252;7.470;2023-04-03T11:21:47;10.30;99.90
27439;DHT22;14887;51.252;7.470;2023-04-03T11:24:22;10.80;99.90
27439;DHT22;14887;51.252;7.470;2023-04-03T11:26:50;10.70;99.90
27439;DHT22;14887;51.252;7.470;2023-04-03T11:29:28;10.50;99.90
27439;DHT22;14887;51.252;7.470;2023-04-03T11:32:31;10.50;99.90
27439;DHT22;14887;51.252;7.470;2023-04-03T11:35:04;11.20;99.90
27439;DHT22;14887;51.252;7.470;2023-04-03T11:37:37;11.50;99.90
27439;DHT22;14887;51.252;7.470;2023-04-03T11:40:07;11.10;99.90
27439;DHT22;14887;51.252;7.470;2023-04-03T11:42:38;10.80;99.90
27439;DHT22;14887;51.252;7.470;2023-04-03T12:16:04;12.30;99.90
27439;DHT22;14887;51.252;7.470;2023-04-03T12:21:15;12.00;99.90
27439;DHT22;14887;51.252;7.470;2023-04-03T12:24:03;12.60;99.90
27439;DHT22;14887;51.252;7.470;2023-04-03T12:34:43;12.80;99.90
27439;DHT22;14887;51.252;7.470;2023-04-03T12:37:27;13.30;99.90
27439;DHT22;14887;51.252;7.470;2023-04-03T12:45:52;13.20;99.90
27439;DHT22;14887;51.252;7.470;2023-04-03T12:48:25;14.00;99.90
27439;DHT22;14887;51.252;7.470;2023-04-03T12:50:51;14.80;99.90
27439;DHT22;14887;51.252;7.470;2023-04-03T12:53:23;14.40;99.90
27439;DHT22;14887;51.252;7.470;2023-04-03T12:55:58;14.40;99.90
27439;DHT22;14887;51.252;7.470;2023-04-03T12:58:43;14.70;99.90
27439;DHT22;14887;51.252;7.470;2023-04-03T13:01:16;14.90;99.90
27439;DHT22;14887;51.252;7.470;2023-04-03T13:03:47;15.60;99.90
27439;DHT22;14887;51.252;7.470;2023-04-03T13:06:26;15.20;99.90
27439;DHT22;14887;51.252;7.470;2023-04-03T13:08:55;15.90;99.90
27439;DHT22;14887;51.252;7.470;2023-04-03T13:11:23;16.30;99.90
27439;DHT22;14887;51.252;7.470;2023-04-03T13:14:48;17.40;99.90
27439;DHT22;14887;51.252;7.470;2023-04-03T13:17:09;17.80;99.90
27439;DHT22;14887;51.252;7.470;2023-04-03T13:19:36;17.80;99.90
27439;DHT22;14887;51.252;7.470;2023-04-03T13:22:07;17.50;99.90
27439;DHT22;14887;51.252;7.470;2023-04-03T13:24:37;17.30;99.90
27439;DHT22;14887;51.252;7.470;2023-04-03T13:27:04;17.20;99.90
27439;DHT22;14887;51.252;7.470;2023-04-03T13:29:34;16.50;99.90
27439;DHT22;14887;51.252;7.470;2023-04-03T13:32:02;17.20;99.90
27439;DHT22;14887;51.252;7.470;2023-04-03T13:34:38;17.70;99.90
27439;DHT22;14887;51.252;7.470;2023-04-03T13:37:06;18.00;99.90
27439;DHT22;14887;51.252;7.470;2023-04-03T13:39:36;18.60;99.90
27439;DHT22;14887;51.252;7.470;2023-04-03T13:42:26;19.10;99.90
27439;DHT22;14887;51.252;7.470;2023-04-03T13:45:23;19.60;99.90
27439;DHT22;14887;51.252;7.470;2023-04-03T13:47:52;20.80;99.90
27439;DHT22;14887;51.252;7.470;2023-04-03T13:50:26;20.70;99.90
27439;DHT22;14887;51.252;7.470;2023-04-03T13:53:00;20.60;99.90
27439;DHT22;14887;51.252;7.470;2023-04-03T13:55:33;20.20;99.90
27439;DHT22;14887;51.252;7.470;2023-04-03T13:58:27;19.80;99.90
27439;DHT22;14887;51.252;7.470;2023-04-03T14:00:55;19.50;99.90
27439;DHT22;14887;51.252;7.470;2023-04-03T14:03:33;19.70;99.90
27439;DHT22;14887;51.252;7.470;2023-04-03T14:06:00;19.40;99.90
27439;DHT22;14887;51.252;7.470;2023-04-03T14:08:26;18.80;99.90
27439;DHT22;14887;51.252;7.470;2023-04-03T14:10:52;19.40;99.90
27439;DHT22;14887;51.252;7.470;2023-04-03T14:13:19;18.10;99.90
27439;DHT22;14887;51.252;7.470;2023-04-03T14:15:46;18.10;99.90
27439;DHT22;14887;51.252;7.470;2023-04-03T14:18:15;18.80;99.90
27439;DHT22;14887;51.252;7.470;2023-04-03T14:20:41;19.70;99.90
27439;DHT22;14887;51.252;7.470;2023-04-03T14:23:07;19.40;99.90
27439;DHT22;14887;51.252;7.470;2023-04-03T14:25:33;19.80;99.90
27439;DHT22;14887;51.252;7.470;2023-04-03T14:27:59;19.70;99.90
27439;DHT22;14887;51.252;7.470;2023-04-03T14:30:28;20.10;99.90
27439;DHT22;14887;51.252;7.470;2023-04-03T14:32:55;20.30;99.90
27439;DHT22;14887;51.252;7.470;2023-04-03T14:35:21;20.00;99.90
27439;DHT22;14887;51.252;7.470;2023-04-03T14:37:47;20.20;99.90
27439;DHT22;14887;51.252;7.470;2023-04-03T14:40:20;20.30;99.90
27439;DHT22;14887;51.252;7.470;2023-04-03T14:42:46;20.20;99.90
27439;DHT22;14887;51.252;7.470;2023-04-03T14:45:14;20.40;99.90
27439;DHT22;14887;51.252;7.470;2023-04-03T14:47:45;20.70;99.90
27439;DHT22;14887;51.252;7.470;2023-04-03T14:50:19;20.80;99.90
27439;DHT22;14887;51.252;7.470;2023-04-03T14:52:47;19.80;99.90
27439;DHT22;14887;51.252;7.470;2023-04-03T14:55:16;19.50;99.90
27439;DHT22;14887;51.252;7.470;2023-04-03T14:57:42;19.30;99.90
27439;DHT22;14887;51.252;7.470;2023-04-03T15:00:12;18.90;99.90
27439;DHT22;14887;51.252;7.470;2023-04-03T15:02:39;18.70;99.90
27439;DHT22;14887;51.252;7.470;2023-04-03T15:05:07;18.70;99.90
27439;DHT22;14887;51.252;7.470;2023-04-03T15:07:57;18.20;99.90
27439;DHT22;14887;51.252;7.470;2023-04-03T15:10:27;17.90;99.90
27439;DHT22;14887;51.252;7.470;2023-04-03T15:12:53;18.50;99.90
27439;DHT22;14887;51.252;7.470;2023-04-03T15:15:21;19.20;99.90
27439;DHT22;14887;51.252;7.470;2023-04-03T15:17:50;19.70;99.90
27439;DHT22;14887;51.252;7.470;2023-04-03T15:20:21;19.10;99.90
27439;DHT22;14887;51.252;7.470;2023-04-03T15:22:47;19.30;99.90
27439;DHT22;14887;51.252;7.470;2023-04-03T15:25:12;19.30;99.90
27439;DHT22;14887;51.252;7.470;2023-04-03T15:27:38;18.90;99.90
27439;DHT22;14887;51.252;7.470;2023-04-03T15:30:06;18.60;99.90
27439;DHT22;14887;51.252;7.470;2023-04-03T15:32:33;18.50;99.90
27439;DHT22;14887;51.252;7.470;2023-04-03T15:34:59;18.30;99.90
27439;DHT22;14887;51.252;7.470;2023-04-03T15:37:25;18.20;99.90
27439;DHT22;14887;51.252;7.470;2023-04-03T15:39:51;17.60;99.90
27439;DHT22;14887;51.252;7.470;2023-04-03T15:42:16;17.60;99.90
27439;DHT22;14887;51.252;7.470;2023-04-03T15:44:42;17.70;99.90
27439;DHT22;14887;51.252;7.470;2023-04-03T15:47:08;18.00;99.90
27439;DHT22;14887;51.252;7.470;2023-04-03T15:49:33;18.20;99.90
27439;DHT22;14887;51.252;7.470;2023-04-03T15:51:59;17.60;99.90
27439;DHT22;14887;51.252;7.470;2023-04-03T15:54:25;17.20;99.90
27439;DHT22;14887;51.252;7.470;2023-04-03T15:56:52;17.30;99.90
27439;DHT22;14887;51.252;7.470;2023-04-03T15:59:17;17.20;99.90
27439;DHT22;14887;51.252;7.470;2023-04-03T16:01:43;17.10;99.90
27439;DHT22;14887;51.252;7.470;2023-04-03T16:04:09;16.90;99.90
27439;DHT22;14887;51.252;7.470;2023-04-03T16:06:37;16.80;99.90
27439;DHT22;14887;51.252;7.470;2023-04-03T16:09:03;16.50;99.90
27439;DHT22;14887;51.252;7.470;2023-04-03T16:11:29;15.80;99.90
27439;DHT22;14887;51.252;7.470;2023-04-03T16:13:55;15.70;99.90
27439;DHT22;14887;51.252;7.470;2023-04-03T16:16:22;15.70;99.90
27439;DHT22;14887;51.252;7.470;2023-04-03T16:18:48;15.30;99.90
27439;DHT22;14887;51.252;7.470;2023-04-03T16:21:16;15.50;99.90
27439;DHT22;14887;51.252;7.470;2023-04-03T16:23:43;15.00;99.90
27439;DHT22;14887;51.252;7.470;2023-04-03T16:26:09;14.60;99.90
27439;DHT22;14887;51.252;7.470;2023-04-03T16:28:34;14.50;99.90
27439;DHT22;14887;51.252;7.470;2023-04-03T16:31:01;15.10;99.90
27439;DHT22;14887;51.252;7.470;2023-04-03T16:33:27;14.90;99.90
27439;DHT22;14887;51.252;7.470;2023-04-03T16:35:53;14.30;99.90
27439;DHT22;14887;51.252;7.470;2023-04-03T16:38:19;14.00;99.90
27439;DHT22;14887;51.252;7.470;2023-04-03T16:40:45;14.00;99.90
27439;DHT22;14887;51.252;7.470;2023-04-03T16:43:11;13.50;99.90
27439;DHT22;14887;51.252;7.470;2023-04-03T16:45:37;13.20;99.90
27439;DHT22;14887;51.252;7.470;2023-04-03T16:48:03;12.80;99.90
27439;DHT22;14887;51.252;7.470;2023-04-03T16:50:29;12.00;99.90
27439;DHT22;14887;51.252;7.470;2023-04-03T16:52:54;11.70;99.90
27439;DHT22;14887;51.252;7.470;2023-04-03T16:55:20;11.50;99.90
27439;DHT22;14887;51.252;7.470;2023-04-03T16:57:46;11.60;99.90
27439;DHT22;14887;51.252;7.470;2023-04-03T17:00:12;11.80;99.90
27439;DHT22;14887;51.252;7.470;2023-04-03T17:02:39;11.80;99.90
27439;DHT22;14887;51.252;7.470;2023-04-03T17:05:06;11.80;99.90
27439;DHT22;14887;51.252;7.470;2023-04-03T17:07:32;11.60;99.90
27439;DHT22;14887;51.252;7.470;2023-04-03T17:09:58;11.80;99.90
27439;DHT22;14887;51.252;7.470;2023-04-03T17:12:23;11.30;99.90
27439;DHT22;14887;51.252;7.470;2023-04-03T17:14:49;11.20;99.90
27439;DHT22;14887;51.252;7.470;2023-04-03T17:17:15;10.80;99.90
27439;DHT22;14887;51.252;7.470;2023-04-03T17:19:41;10.60;99.90
27439;DHT22;14887;51.252;7.470;2023-04-03T17:22:08;10.50;99.90
27439;DHT22;14887;51.252;7.470;2023-04-03T17:24:35;10.20;99.90
27439;DHT22;14887;51.252;7.470;2023-04-03T17:27:01;9.40;99.90
27439;DHT22;14887;51.252;7.470;2023-04-03T17:29:27;8.60;99.90
27439;DHT22;14887;51.252;7.470;2023-04-03T17:31:53;8.00;99.90
27439;DHT22;14887;51.252;7.470;2023-04-03T17:34:18;7.50;99.90